sensor_id;sensor_type;location;lat;lon;timestamp;temperature;humidity
71304;DHT22;59091;47.446;19.148;2023-02-01T00:01:53;4.31;78.05
71304;DHT22;59091;47.446;19.148;2023-02-01T00:04:19;4.38;77.57
71304;DHT22;59091;47.446;19.148;2023-02-01T00:06:44;4.29;77.63
71304;DHT22;59091;47.446;19.148;2023-02-01T00:09:10;4.38;77.21
71304;DHT22;59091;47.446;19.148;2023-02-01T00:11:35;4.33;77.04
71304;DHT22;59091;47.446;19.148;2023-02-01T00:14:01;4.26;77.39
71304;DHT22;59091;47.446;19.148;2023-02-01T00:16:29;4.39;76.89
71304;DHT22;59091;47.446;19.148;2023-02-01T00:21:28;4.48;76.88
71304;DHT22;59091;47.446;19.148;2023-02-01T00:23:54;4.42;77.00
71304;DHT22;59091;47.446;19.148;2023-02-01T00:26:25;4.35;76.66
71304;DHT22;59091;47.446;19.148;2023-02-01T00:28:53;4.43;76.57
71304;DHT22;59091;47.446;19.148;2023-02-01T00:31:18;4.53;76.19
71304;DHT22;59091;47.446;19.148;2023-02-01T00:33:47;4.46;76.08
71304;DHT22;59091;47.446;19.148;2023-02-01T00:36:12;4.53;76.18
71304;DHT22;59091;47.446;19.148;2023-02-01T00:38:38;4.60;75.84
71304;DHT22;59091;47.446;19.148;2023-02-01T00:41:16;4.70;75.39
71304;DHT22;59091;47.446;19.148;2023-02-01T00:43:42;4.77;75.27
71304;DHT22;59091;47.446;19.148;2023-02-01T00:46:08;4.62;75.40
71304;DHT22;59091;47.446;19.148;2023-02-01T00:48:33;4.57;75.53
71304;DHT22;59091;47.446;19.148;2023-02-01T00:51:00;4.60;75.42
71304;DHT22;59091;47.446;19.148;2023-02-01T00:53:26;4.73;75.26
71304;DHT22;59091;47.446;19.148;2023-02-01T00:55:52;4.72;75.23
71304;DHT22;59091;47.446;19.148;2023-02-01T00:58:17;4.73;75.23
71304;DHT22;59091;47.446;19.148;2023-02-01T01:00:43;4.79;75.14
71304;DHT22;59091;47.446;19.148;2023-02-01T01:03:09;4.80;75.10
71304;DHT22;59091;47.446;19.148;2023-02-01T01:05:47;4.77;74.78
71304;DHT22;59091;47.446;19.148;2023-02-01T01:08:14;4.85;74.71
71304;DHT22;59091;47.446;19.148;2023-02-01T01:10:40;4.93;74.14
71304;DHT22;59091;47.446;19.148;2023-02-01T01:13:06;4.84;73.93
71304;DHT22;59091;47.446;19.148;2023-02-01T01:15:39;4.98;73.56
71304;DHT22;59091;47.446;19.148;2023-02-01T01:18:05;5.05;73.40
71304;DHT22;59091;47.446;19.148;2023-02-01T01:20:31;5.03;73.36
71304;DHT22;59091;47.446;19.148;2023-02-01T01:22:58;5.03;73.20
71304;DHT22;59091;47.446;19.148;2023-02-01T01:25:24;5.01;73.04
71304;DHT22;59091;47.446;19.148;2023-02-01T01:27:49;5.10;72.94
71304;DHT22;59091;47.446;19.148;2023-02-01T01:30:15;5.13;72.77
71304;DHT22;59091;47.446;19.148;2023-02-01T01:32:41;5.18;72.64
71304;DHT22;59091;47.446;19.148;2023-02-01T01:35:06;5.18;72.30
71304;DHT22;59091;47.446;19.148;2023-02-01T01:37:32;5.21;72.14
71304;DHT22;59091;47.446;19.148;2023-02-01T01:39:57;5.18;72.10
71304;DHT22;59091;47.446;19.148;2023-02-01T01:42:23;5.31;72.11
71304;DHT22;59091;47.446;19.148;2023-02-01T01:47:39;5.41;71.53
71304;DHT22;59091;47.446;19.148;2023-02-01T01:50:10;5.45;71.42
71304;DHT22;59091;47.446;19.148;2023-02-01T01:52:38;5.24;71.11
71304;DHT22;59091;47.446;19.148;2023-02-01T01:55:04;5.15;71.19
71304;DHT22;59091;47.446;19.148;2023-02-01T01:57:33;5.14;71.37
71304;DHT22;59091;47.446;19.148;2023-02-01T02:00:06;5.11;71.38
71304;DHT22;59091;47.446;19.148;2023-02-01T02:02:32;5.27;71.50
71304;DHT22;59091;47.446;19.148;2023-02-01T02:04:58;5.21;71.76
71304;DHT22;59091;47.446;19.148;2023-02-01T02:07:28;5.30;71.56
71304;DHT22;59091;47.446;19.148;2023-02-01T02:09:55;5.36;71.34
71304;DHT22;59091;47.446;19.148;2023-02-01T02:12:21;5.39;71.11
71304;DHT22;59091;47.446;19.148;2023-02-01T02:14:47;5.30;70.94
71304;DHT22;59091;47.446;19.148;2023-02-01T02:17:25;5.32;70.80
71304;DHT22;59091;47.446;19.148;2023-02-01T02:34:29;5.13;70.97
71304;DHT22;59091;47.446;19.148;2023-02-01T02:37:24;5.24;70.86
71304;DHT22;59091;47.446;19.148;2023-02-01T02:48:47;5.04;70.80
71304;DHT22;59091;47.446;19.148;2023-02-01T02:54:36;5.04;70.85
71304;DHT22;59091;47.446;19.148;2023-02-01T02:57:26;5.01;70.63
71304;DHT22;59091;47.446;19.148;2023-02-01T03:00:15;4.97;70.70
71304;DHT22;59091;47.446;19.148;2023-02-01T03:03:01;4.94;70.91
71304;DHT22;59091;47.446;19.148;2023-02-01T03:05:47;4.95;70.79
71304;DHT22;59091;47.446;19.148;2023-02-01T03:08:16;4.93;70.92
71304;DHT22;59091;47.446;19.148;2023-02-01T03:18:41;4.74;71.02
71304;DHT22;59091;47.446;19.148;2023-02-01T03:21:13;4.69;71.19
71304;DHT22;59091;47.446;19.148;2023-02-01T03:23:40;4.72;71.10
71304;DHT22;59091;47.446;19.148;2023-02-01T03:26:11;4.69;71.20
71304;DHT22;59091;47.446;19.148;2023-02-01T03:28:43;4.73;70.99
71304;DHT22;59091;47.446;19.148;2023-02-01T03:31:11;4.69;71.06
71304;DHT22;59091;47.446;19.148;2023-02-01T03:33:38;4.69;71.15
71304;DHT22;59091;47.446;19.148;2023-02-01T03:36:24;4.53;70.88
71304;DHT22;59091;47.446;19.148;2023-02-01T03:41:42;4.46;71.39
71304;DHT22;59091;47.446;19.148;2023-02-01T03:44:19;4.45;71.56
71304;DHT22;59091;47.446;19.148;2023-02-01T03:46:50;4.42;71.61
71304;DHT22;59091;47.446;19.148;2023-02-01T03:49:22;4.22;72.39
71304;DHT22;59091;47.446;19.148;2023-02-01T03:51:51;4.22;72.62
71304;DHT22;59091;47.446;19.148;2023-02-01T03:54:18;4.19;72.70
71304;DHT22;59091;47.446;19.148;2023-02-01T03:56:45;4.22;72.59
71304;DHT22;59091;47.446;19.148;2023-02-01T03:59:13;4.21;72.63
71304;DHT22;59091;47.446;19.148;2023-02-01T04:01:39;4.35;72.41
71304;DHT22;59091;47.446;19.148;2023-02-01T04:04:05;4.38;72.33
71304;DHT22;59091;47.446;19.148;2023-02-01T04:06:30;4.39;72.20
71304;DHT22;59091;47.446;19.148;2023-02-01T04:08:56;4.50;71.95
71304;DHT22;59091;47.446;19.148;2023-02-01T04:11:21;4.48;71.86
71304;DHT22;59091;47.446;19.148;2023-02-01T04:13:47;4.59;71.53
71304;DHT22;59091;47.446;19.148;2023-02-01T04:16:12;4.70;71.21
71304;DHT22;59091;47.446;19.148;2023-02-01T04:18:37;4.79;70.99
71304;DHT22;59091;47.446;19.148;2023-02-01T04:21:03;4.77;70.88
71304;DHT22;59091;47.446;19.148;2023-02-01T04:23:29;4.77;71.02
71304;DHT22;59091;47.446;19.148;2023-02-01T04:25:59;4.77;70.69
71304;DHT22;59091;47.446;19.148;2023-02-01T04:28:24;4.83;70.45
71304;DHT22;59091;47.446;19.148;2023-02-01T04:30:50;5.01;70.24
71304;DHT22;59091;47.446;19.148;2023-02-01T04:33:15;5.03;69.81
71304;DHT22;59091;47.446;19.148;2023-02-01T04:35:41;5.15;69.66
71304;DHT22;59091;47.446;19.148;2023-02-01T04:38:06;5.13;69.47
71304;DHT22;59091;47.446;19.148;2023-02-01T04:40:32;5.17;69.21
71304;DHT22;59091;47.446;19.148;2023-02-01T04:42:58;5.21;69.22
71304;DHT22;59091;47.446;19.148;2023-02-01T04:45:23;5.34;69.02
71304;DHT22;59091;47.446;19.148;2023-02-01T04:47:49;5.34;68.83
71304;DHT22;59091;47.446;19.148;2023-02-01T04:50:15;5.39;68.89
71304;DHT22;59091;47.446;19.148;2023-02-01T04:52:40;5.32;68.71
71304;DHT22;59091;47.446;19.148;2023-02-01T04:55:07;5.28;68.82
71304;DHT22;59091;47.446;19.148;2023-02-01T04:57:32;5.38;68.63
71304;DHT22;59091;47.446;19.148;2023-02-01T04:59:58;5.41;68.69
71304;DHT22;59091;47.446;19.148;2023-02-01T05:02:23;5.44;68.54
71304;DHT22;59091;47.446;19.148;2023-02-01T05:04:48;5.36;68.46
71304;DHT22;59091;47.446;19.148;2023-02-01T05:07:15;5.38;68.49
71304;DHT22;59091;47.446;19.148;2023-02-01T05:09:41;5.46;68.32
71304;DHT22;59091;47.446;19.148;2023-02-01T05:12:07;5.39;68.26
71304;DHT22;59091;47.446;19.148;2023-02-01T05:14:52;5.32;68.58
71304;DHT22;59091;47.446;19.148;2023-02-01T05:17:17;5.21;68.70
71304;DHT22;59091;47.446;19.148;2023-02-01T05:19:42;5.27;68.51
71304;DHT22;59091;47.446;19.148;2023-02-01T05:22:08;5.41;68.67
71304;DHT22;59091;47.446;19.148;2023-02-01T05:24:33;5.45;67.51
71304;DHT22;59091;47.446;19.148;2023-02-01T05:26:59;5.45;67.60
71304;DHT22;59091;47.446;19.148;2023-02-01T05:29:24;5.46;67.42
71304;DHT22;59091;47.446;19.148;2023-02-01T05:31:49;5.52;67.27
71304;DHT22;59091;47.446;19.148;2023-02-01T05:34:15;5.51;67.17
71304;DHT22;59091;47.446;19.148;2023-02-01T05:36:41;5.60;67.01
71304;DHT22;59091;47.446;19.148;2023-02-01T05:39:06;5.58;67.20
71304;DHT22;59091;47.446;19.148;2023-02-01T05:41:32;5.46;67.38
71304;DHT22;59091;47.446;19.148;2023-02-01T05:43:58;5.52;67.28
71304;DHT22;59091;47.446;19.148;2023-02-01T05:46:23;5.60;67.11
71304;DHT22;59091;47.446;19.148;2023-02-01T05:48:49;5.55;67.47
71304;DHT22;59091;47.446;19.148;2023-02-01T05:51:14;5.54;67.74
71304;DHT22;59091;47.446;19.148;2023-02-01T05:53:39;5.41;67.90
71304;DHT22;59091;47.446;19.148;2023-02-01T05:56:05;5.52;68.26
71304;DHT22;59091;47.446;19.148;2023-02-01T05:58:31;5.49;67.88
71304;DHT22;59091;47.446;19.148;2023-02-01T06:00:59;5.60;67.91
71304;DHT22;59091;47.446;19.148;2023-02-01T06:03:25;5.54;68.85
71304;DHT22;59091;47.446;19.148;2023-02-01T06:05:51;5.55;67.81
71304;DHT22;59091;47.446;19.148;2023-02-01T06:08:16;5.59;67.83
71304;DHT22;59091;47.446;19.148;2023-02-01T06:10:42;5.56;67.83
71304;DHT22;59091;47.446;19.148;2023-02-01T06:13:08;5.49;67.87
71304;DHT22;59091;47.446;19.148;2023-02-01T06:15:34;5.54;67.72
71304;DHT22;59091;47.446;19.148;2023-02-01T06:18:00;5.52;67.74
71304;DHT22;59091;47.446;19.148;2023-02-01T06:20:26;5.46;67.82
71304;DHT22;59091;47.446;19.148;2023-02-01T06:22:51;5.60;69.03
71304;DHT22;59091;47.446;19.148;2023-02-01T06:25:18;5.58;67.62
71304;DHT22;59091;47.446;19.148;2023-02-01T06:27:43;5.60;68.69
71304;DHT22;59091;47.446;19.148;2023-02-01T06:30:11;5.52;67.74
71304;DHT22;59091;47.446;19.148;2023-02-01T06:32:39;5.60;67.69
71304;DHT22;59091;47.446;19.148;2023-02-01T06:35:06;5.66;67.50
71304;DHT22;59091;47.446;19.148;2023-02-01T06:37:33;5.72;67.37
71304;DHT22;59091;47.446;19.148;2023-02-01T06:39:58;5.67;67.59
71304;DHT22;59091;47.446;19.148;2023-02-01T06:42:23;5.70;67.42
71304;DHT22;59091;47.446;19.148;2023-02-01T06:44:49;5.75;67.20
71304;DHT22;59091;47.446;19.148;2023-02-01T06:47:14;5.75;67.37
71304;DHT22;59091;47.446;19.148;2023-02-01T06:49:40;5.67;67.19
71304;DHT22;59091;47.446;19.148;2023-02-01T06:52:05;5.79;67.28
71304;DHT22;59091;47.446;19.148;2023-02-01T06:54:31;5.82;67.10
71304;DHT22;59091;47.446;19.148;2023-02-01T06:56:58;5.92;66.79
71304;DHT22;59091;47.446;19.148;2023-02-01T06:59:24;5.89;67.05
71304;DHT22;59091;47.446;19.148;2023-02-01T07:01:50;5.99;66.85
71304;DHT22;59091;47.446;19.148;2023-02-01T07:04:15;6.05;66.61
71304;DHT22;59091;47.446;19.148;2023-02-01T07:06:41;6.06;66.67
71304;DHT22;59091;47.446;19.148;2023-02-01T07:09:07;6.10;66.56
71304;DHT22;59091;47.446;19.148;2023-02-01T07:11:33;6.20;66.20
71304;DHT22;59091;47.446;19.148;2023-02-01T07:13:59;6.14;66.24
71304;DHT22;59091;47.446;19.148;2023-02-01T07:16:24;6.03;66.19
71304;DHT22;59091;47.446;19.148;2023-02-01T07:18:51;6.09;65.87
71304;DHT22;59091;47.446;19.148;2023-02-01T07:21:17;6.18;65.64
71304;DHT22;59091;47.446;19.148;2023-02-01T07:23:42;6.38;65.51
71304;DHT22;59091;47.446;19.148;2023-02-01T07:26:11;6.41;65.39
71304;DHT22;59091;47.446;19.148;2023-02-01T07:28:39;6.42;65.19
71304;DHT22;59091;47.446;19.148;2023-02-01T07:31:09;6.31;65.14
71304;DHT22;59091;47.446;19.148;2023-02-01T07:33:36;6.47;64.84
71304;DHT22;59091;47.446;19.148;2023-02-01T07:36:04;6.63;64.55
71304;DHT22;59091;47.446;19.148;2023-02-01T07:38:29;6.51;64.22
71304;DHT22;59091;47.446;19.148;2023-02-01T07:41:02;6.44;63.98
71304;DHT22;59091;47.446;19.148;2023-02-01T07:43:29;6.54;63.54
71304;DHT22;59091;47.446;19.148;2023-02-01T07:45:55;6.71;63.27
71304;DHT22;59091;47.446;19.148;2023-02-01T07:48:22;6.71;62.77
71304;DHT22;59091;47.446;19.148;2023-02-01T07:50:48;6.74;62.51
71304;DHT22;59091;47.446;19.148;2023-02-01T07:53:14;6.88;62.30
71304;DHT22;59091;47.446;19.148;2023-02-01T07:55:40;6.85;61.84
71304;DHT22;59091;47.446;19.148;2023-02-01T07:58:06;7.16;61.79
71304;DHT22;59091;47.446;19.148;2023-02-01T08:00:31;7.20;61.35
71304;DHT22;59091;47.446;19.148;2023-02-01T08:03:15;7.39;61.01
71304;DHT22;59091;47.446;19.148;2023-02-01T08:05:41;7.47;60.40
71304;DHT22;59091;47.446;19.148;2023-02-01T08:08:06;7.57;60.22
71304;DHT22;59091;47.446;19.148;2023-02-01T08:10:33;7.39;59.84
71304;DHT22;59091;47.446;19.148;2023-02-01T08:13:00;7.46;59.85
71304;DHT22;59091;47.446;19.148;2023-02-01T08:15:29;7.53;59.15
71304;DHT22;59091;47.446;19.148;2023-02-01T08:17:55;7.60;59.16
71304;DHT22;59091;47.446;19.148;2023-02-01T08:20:21;7.59;58.93
71304;DHT22;59091;47.446;19.148;2023-02-01T08:22:48;7.40;58.94
71304;DHT22;59091;47.446;19.148;2023-02-01T08:25:14;7.33;58.81
71304;DHT22;59091;47.446;19.148;2023-02-01T08:27:39;7.40;58.91
71304;DHT22;59091;47.446;19.148;2023-02-01T08:30:05;7.34;58.87
71304;DHT22;59091;47.446;19.148;2023-02-01T08:32:33;7.40;59.17
71304;DHT22;59091;47.446;19.148;2023-02-01T08:34:58;7.30;58.94
71304;DHT22;59091;47.446;19.148;2023-02-01T08:37:24;7.22;59.05
71304;DHT22;59091;47.446;19.148;2023-02-01T08:39:49;7.36;58.99
71304;DHT22;59091;47.446;19.148;2023-02-01T08:42:16;7.36;58.97
71304;DHT22;59091;47.446;19.148;2023-02-01T08:45:01;7.53;59.00
71304;DHT22;59091;47.446;19.148;2023-02-01T08:47:27;7.31;59.90
71304;DHT22;59091;47.446;19.148;2023-02-01T08:49:53;7.23;59.66
71304;DHT22;59091;47.446;19.148;2023-02-01T08:52:19;7.40;59.84
71304;DHT22;59091;47.446;19.148;2023-02-01T08:54:44;7.50;59.65
71304;DHT22;59091;47.446;19.148;2023-02-01T08:57:10;7.37;59.75
71304;DHT22;59091;47.446;19.148;2023-02-01T08:59:35;7.33;60.48
71304;DHT22;59091;47.446;19.148;2023-02-01T09:02:01;7.40;60.80
71304;DHT22;59091;47.446;19.148;2023-02-01T09:04:26;7.57;60.61
71304;DHT22;59091;47.446;19.148;2023-02-01T09:06:52;7.73;60.35
71304;DHT22;59091;47.446;19.148;2023-02-01T09:09:21;7.70;60.13
71304;DHT22;59091;47.446;19.148;2023-02-01T09:11:46;7.97;60.07
71304;DHT22;59091;47.446;19.148;2023-02-01T09:14:11;8.05;59.89
71304;DHT22;59091;47.446;19.148;2023-02-01T09:16:37;8.05;59.58
71304;DHT22;59091;47.446;19.148;2023-02-01T09:19:02;7.85;59.50
71304;DHT22;59091;47.446;19.148;2023-02-01T09:21:28;7.84;59.89
71304;DHT22;59091;47.446;19.148;2023-02-01T09:23:54;7.94;59.95
71304;DHT22;59091;47.446;19.148;2023-02-01T09:26:19;8.13;59.55
71304;DHT22;59091;47.446;19.148;2023-02-01T09:28:45;8.18;59.52
71304;DHT22;59091;47.446;19.148;2023-02-01T09:31:10;8.41;59.19
71304;DHT22;59091;47.446;19.148;2023-02-01T09:33:36;8.41;58.68
71304;DHT22;59091;47.446;19.148;2023-02-01T09:36:03;8.59;59.13
71304;DHT22;59091;47.446;19.148;2023-02-01T09:38:31;8.50;57.94
71304;DHT22;59091;47.446;19.148;2023-02-01T09:40:57;8.64;57.77
71304;DHT22;59091;47.446;19.148;2023-02-01T09:46:04;8.94;57.58
71304;DHT22;59091;47.446;19.148;2023-02-01T09:48:35;8.93;57.27
71304;DHT22;59091;47.446;19.148;2023-02-01T09:51:05;9.10;56.90
71304;DHT22;59091;47.446;19.148;2023-02-01T09:53:40;8.66;55.47
71304;DHT22;59091;47.446;19.148;2023-02-01T09:56:13;8.72;55.52
71304;DHT22;59091;47.446;19.148;2023-02-01T09:58:43;8.64;56.10
71304;DHT22;59091;47.446;19.148;2023-02-01T10:01:30;8.60;56.03
71304;DHT22;59091;47.446;19.148;2023-02-01T10:04:03;8.36;56.84
71304;DHT22;59091;47.446;19.148;2023-02-01T10:06:51;8.48;57.28
71304;DHT22;59091;47.446;19.148;2023-02-01T10:09:47;8.69;56.80
71304;DHT22;59091;47.446;19.148;2023-02-01T10:20:28;8.77;57.34
71304;DHT22;59091;47.446;19.148;2023-02-01T10:26:00;8.62;58.62
71304;DHT22;59091;47.446;19.148;2023-02-01T10:28:24;8.73;58.93
71304;DHT22;59091;47.446;19.148;2023-02-01T10:30:54;8.87;58.28
71304;DHT22;59091;47.446;19.148;2023-02-01T10:33:25;8.93;58.32
71304;DHT22;59091;47.446;19.148;2023-02-01T10:35:55;8.87;58.94
71304;DHT22;59091;47.446;19.148;2023-02-01T10:38:29;8.69;58.82
71304;DHT22;59091;47.446;19.148;2023-02-01T10:40:58;8.72;59.75
71304;DHT22;59091;47.446;19.148;2023-02-01T10:43:24;8.73;59.41
71304;DHT22;59091;47.446;19.148;2023-02-01T10:45:49;8.57;59.83
71304;DHT22;59091;47.446;19.148;2023-02-01T10:48:15;8.63;60.31
71304;DHT22;59091;47.446;19.148;2023-02-01T10:56:38;8.73;59.42
71304;DHT22;59091;47.446;19.148;2023-02-01T10:59:05;8.84;67.39
71304;DHT22;59091;47.446;19.148;2023-02-01T11:01:37;8.70;59.35
71304;DHT22;59091;47.446;19.148;2023-02-01T11:04:10;8.64;59.87
71304;DHT22;59091;47.446;19.148;2023-02-01T11:06:41;8.43;60.34
71304;DHT22;59091;47.446;19.148;2023-02-01T11:11:33;8.73;61.14
71304;DHT22;59091;47.446;19.148;2023-02-01T11:14:37;8.74;60.96
71304;DHT22;59091;47.446;19.148;2023-02-01T11:19:46;8.99;60.90
71304;DHT22;59091;47.446;19.148;2023-02-01T11:22:13;9.03;60.70
71304;DHT22;59091;47.446;19.148;2023-02-01T11:24:41;9.17;60.69
71304;DHT22;59091;47.446;19.148;2023-02-01T11:27:16;9.14;60.17
71304;DHT22;59091;47.446;19.148;2023-02-01T11:29:44;9.35;60.11
71304;DHT22;59091;47.446;19.148;2023-02-01T11:32:12;9.24;59.97
71304;DHT22;59091;47.446;19.148;2023-02-01T11:34:47;9.25;60.30
71304;DHT22;59091;47.446;19.148;2023-02-01T11:37:20;9.38;61.08
71304;DHT22;59091;47.446;19.148;2023-02-01T11:39:55;9.21;61.35
71304;DHT22;59091;47.446;19.148;2023-02-01T11:42:21;9.03;62.16
71304;DHT22;59091;47.446;19.148;2023-02-01T11:44:47;9.05;62.02
71304;DHT22;59091;47.446;19.148;2023-02-01T11:47:19;9.01;62.63
71304;DHT22;59091;47.446;19.148;2023-02-01T11:49:46;9.05;63.34
71304;DHT22;59091;47.446;19.148;2023-02-01T11:52:22;8.83;63.72
71304;DHT22;59091;47.446;19.148;2023-02-01T11:58:06;8.42;66.55
71304;DHT22;59091;47.446;19.148;2023-02-01T12:06:53;8.42;68.22
71304;DHT22;59091;47.446;19.148;2023-02-01T12:26:46;7.95;70.63
71304;DHT22;59091;47.446;19.148;2023-02-01T12:29:30;7.80;71.33
71304;DHT22;59091;47.446;19.148;2023-02-01T12:32:11;7.44;73.20
71304;DHT22;59091;47.446;19.148;2023-02-01T12:38:16;7.03;75.67
71304;DHT22;59091;47.446;19.148;2023-02-01T12:43:20;6.47;78.70
71304;DHT22;59091;47.446;19.148;2023-02-01T12:45:58;6.45;78.87
71304;DHT22;59091;47.446;19.148;2023-02-01T12:48:41;6.31;79.22
71304;DHT22;59091;47.446;19.148;2023-02-01T12:51:13;6.06;80.29
71304;DHT22;59091;47.446;19.148;2023-02-01T12:54:00;5.95;79.49
71304;DHT22;59091;47.446;19.148;2023-02-01T12:56:43;5.83;79.83
71304;DHT22;59091;47.446;19.148;2023-02-01T13:01:59;6.16;80.39
71304;DHT22;59091;47.446;19.148;2023-02-01T13:04:37;6.10;79.95
71304;DHT22;59091;47.446;19.148;2023-02-01T13:07:08;6.30;80.31
71304;DHT22;59091;47.446;19.148;2023-02-01T13:09:55;6.63;79.50
71304;DHT22;59091;47.446;19.148;2023-02-01T13:12:29;6.95;78.70
71304;DHT22;59091;47.446;19.148;2023-02-01T13:15:17;7.20;78.38
71304;DHT22;59091;47.446;19.148;2023-02-01T13:17:45;7.18;78.72
71304;DHT22;59091;47.446;19.148;2023-02-01T13:20:32;7.29;78.33
71304;DHT22;59091;47.446;19.148;2023-02-01T13:23:04;7.40;77.75
71304;DHT22;59091;47.446;19.148;2023-02-01T13:25:50;7.05;77.81
71304;DHT22;59091;47.446;19.148;2023-02-01T13:28:21;7.26;77.80
71304;DHT22;59091;47.446;19.148;2023-02-01T13:39:35;6.69;79.00
71304;DHT22;59091;47.446;19.148;2023-02-01T13:42:17;6.49;79.45
71304;DHT22;59091;47.446;19.148;2023-02-01T13:44:49;6.55;79.43
71304;DHT22;59091;47.446;19.148;2023-02-01T13:47:40;6.63;79.01
71304;DHT22;59091;47.446;19.148;2023-02-01T13:50:49;6.34;80.01
71304;DHT22;59091;47.446;19.148;2023-02-01T13:53:18;6.38;80.03
71304;DHT22;59091;47.446;19.148;2023-02-01T13:55:54;6.34;80.09
71304;DHT22;59091;47.446;19.148;2023-02-01T13:58:29;6.33;80.39
71304;DHT22;59091;47.446;19.148;2023-02-01T14:03:54;6.26;81.49
71304;DHT22;59091;47.446;19.148;2023-02-01T14:16:42;6.48;80.75
71304;DHT22;59091;47.446;19.148;2023-02-01T14:19:19;6.45;80.57
71304;DHT22;59091;47.446;19.148;2023-02-01T14:21:53;6.51;80.43
71304;DHT22;59091;47.446;19.148;2023-02-01T14:24:26;6.59;80.21
71304;DHT22;59091;47.446;19.148;2023-02-01T14:27:28;6.79;80.29
71304;DHT22;59091;47.446;19.148;2023-02-01T14:29:58;6.91;79.76
71304;DHT22;59091;47.446;19.148;2023-02-01T14:32:31;7.06;78.79
71304;DHT22;59091;47.446;19.148;2023-02-01T14:35:01;7.02;80.40
71304;DHT22;59091;47.446;19.148;2023-02-01T14:37:29;6.88;79.27
71304;DHT22;59091;47.446;19.148;2023-02-01T14:44:51;7.12;77.84
71304;DHT22;59091;47.446;19.148;2023-02-01T14:50:10;7.19;77.50
71304;DHT22;59091;47.446;19.148;2023-02-01T14:52:41;7.30;77.66
71304;DHT22;59091;47.446;19.148;2023-02-01T15:01:03;7.67;76.46
71304;DHT22;59091;47.446;19.148;2023-02-01T15:03:52;7.73;75.87
71304;DHT22;59091;47.446;19.148;2023-02-01T15:08:48;7.81;75.82
71304;DHT22;59091;47.446;19.148;2023-02-01T15:11:15;7.88;76.00
71304;DHT22;59091;47.446;19.148;2023-02-01T15:13:48;7.84;73.94
71304;DHT22;59091;47.446;19.148;2023-02-01T15:16:15;7.74;73.99
71304;DHT22;59091;47.446;19.148;2023-02-01T15:18:41;7.64;73.40
71304;DHT22;59091;47.446;19.148;2023-02-01T15:21:16;7.51;73.68
71304;DHT22;59091;47.446;19.148;2023-02-01T15:23:42;7.39;73.79
71304;DHT22;59091;47.446;19.148;2023-02-01T15:26:08;7.40;73.11
71304;DHT22;59091;47.446;19.148;2023-02-01T15:28:33;7.20;73.39
71304;DHT22;59091;47.446;19.148;2023-02-01T15:31:03;7.15;72.62
71304;DHT22;59091;47.446;19.148;2023-02-01T15:33:30;6.88;72.24
71304;DHT22;59091;47.446;19.148;2023-02-01T15:38:33;7.06;72.65
71304;DHT22;59091;47.446;19.148;2023-02-01T15:43:36;6.92;72.44
71304;DHT22;59091;47.446;19.148;2023-02-01T15:46:07;6.95;72.03
71304;DHT22;59091;47.446;19.148;2023-02-01T15:48:57;7.05;71.69
71304;DHT22;59091;47.446;19.148;2023-02-01T15:51:23;7.05;72.48
71304;DHT22;59091;47.446;19.148;2023-02-01T15:54:16;6.93;72.25
71304;DHT22;59091;47.446;19.148;2023-02-01T15:56:49;6.98;71.86
71304;DHT22;59091;47.446;19.148;2023-02-01T15:59:22;6.63;72.26
71304;DHT22;59091;47.446;19.148;2023-02-01T16:01:49;6.74;72.16
71304;DHT22;59091;47.446;19.148;2023-02-01T16:09:16;6.55;71.42
71304;DHT22;59091;47.446;19.148;2023-02-01T16:11:49;6.63;71.53
71304;DHT22;59091;47.446;19.148;2023-02-01T16:14:17;6.57;71.30
71304;DHT22;59091;47.446;19.148;2023-02-01T16:16:42;6.51;70.95
71304;DHT22;59091;47.446;19.148;2023-02-01T16:19:08;6.55;70.86
71304;DHT22;59091;47.446;19.148;2023-02-01T16:21:33;6.54;71.00
71304;DHT22;59091;47.446;19.148;2023-02-01T16:23:59;6.41;71.39
71304;DHT22;59091;47.446;19.148;2023-02-01T16:26:29;6.45;72.16
71304;DHT22;59091;47.446;19.148;2023-02-01T16:28:55;6.57;71.89
71304;DHT22;59091;47.446;19.148;2023-02-01T16:31:25;6.38;71.92
71304;DHT22;59091;47.446;19.148;2023-02-01T16:33:52;6.48;73.10
71304;DHT22;59091;47.446;19.148;2023-02-01T16:36:18;6.52;72.74
71304;DHT22;59091;47.446;19.148;2023-02-01T16:38:45;6.42;72.13
71304;DHT22;59091;47.446;19.148;2023-02-01T16:41:17;6.42;72.33
71304;DHT22;59091;47.446;19.148;2023-02-01T16:43:43;6.91;74.42
71304;DHT22;59091;47.446;19.148;2023-02-01T16:46:17;6.88;71.49
71304;DHT22;59091;47.446;19.148;2023-02-01T16:48:50;6.81;71.78
71304;DHT22;59091;47.446;19.148;2023-02-01T16:51:16;6.88;72.74
71304;DHT22;59091;47.446;19.148;2023-02-01T16:53:43;6.85;71.50
71304;DHT22;59091;47.446;19.148;2023-02-01T16:56:13;6.92;71.11
71304;DHT22;59091;47.446;19.148;2023-02-01T16:58:39;6.98;70.93
71304;DHT22;59091;47.446;19.148;2023-02-01T17:01:06;6.91;71.61
71304;DHT22;59091;47.446;19.148;2023-02-01T17:03:32;6.92;71.14
71304;DHT22;59091;47.446;19.148;2023-02-01T17:05:57;6.87;71.30
71304;DHT22;59091;47.446;19.148;2023-02-01T17:08:52;6.88;71.44
71304;DHT22;59091;47.446;19.148;2023-02-01T17:11:19;6.96;71.56
71304;DHT22;59091;47.446;19.148;2023-02-01T17:13:44;6.89;71.89
71304;DHT22;59091;47.446;19.148;2023-02-01T17:19:12;6.87;71.42
71304;DHT22;59091;47.446;19.148;2023-02-01T17:21:54;7.02;75.36
71304;DHT22;59091;47.446;19.148;2023-02-01T17:24:23;7.16;77.59
71304;DHT22;59091;47.446;19.148;2023-02-01T17:26:49;7.08;73.22
71304;DHT22;59091;47.446;19.148;2023-02-01T17:29:16;7.02;71.88
71304;DHT22;59091;47.446;19.148;2023-02-01T17:31:45;7.05;71.77
71304;DHT22;59091;47.446;19.148;2023-02-01T17:34:13;6.93;72.18
71304;DHT22;59091;47.446;19.148;2023-02-01T17:36:40;6.91;72.22
71304;DHT22;59091;47.446;19.148;2023-02-01T17:39:07;6.84;71.95
71304;DHT22;59091;47.446;19.148;2023-02-01T17:41:33;6.87;71.63
71304;DHT22;59091;47.446;19.148;2023-02-01T17:43:58;6.82;71.44
71304;DHT22;59091;47.446;19.148;2023-02-01T17:46:24;6.81;71.68
71304;DHT22;59091;47.446;19.148;2023-02-01T17:48:53;6.74;71.92
71304;DHT22;59091;47.446;19.148;2023-02-01T17:51:21;6.71;71.77
71304;DHT22;59091;47.446;19.148;2023-02-01T17:53:48;6.68;72.01
71304;DHT22;59091;47.446;19.148;2023-02-01T17:56:15;6.58;72.41
71304;DHT22;59091;47.446;19.148;2023-02-01T17:58:42;6.58;72.30
71304;DHT22;59091;47.446;19.148;2023-02-01T18:01:18;6.58;71.79
71304;DHT22;59091;47.446;19.148;2023-02-01T18:03:44;6.52;72.05
71304;DHT22;59091;47.446;19.148;2023-02-01T18:06:15;6.44;72.09
71304;DHT22;59091;47.446;19.148;2023-02-01T18:08:41;6.54;72.20
71304;DHT22;59091;47.446;19.148;2023-02-01T18:11:17;6.30;72.45
71304;DHT22;59091;47.446;19.148;2023-02-01T18:13:44;6.34;72.24
71304;DHT22;59091;47.446;19.148;2023-02-01T18:16:19;6.31;71.98
71304;DHT22;59091;47.446;19.148;2023-02-01T18:18:46;6.28;71.87